createdAt,value
2019-03-08T00:01:47.289Z,8.60
2019-03-08T00:04:16.162Z,8.50
2019-03-08T00:06:45.332Z,8.50
2019-03-08T00:09:14.136Z,8.50
2019-03-08T00:11:43.221Z,8.50
2019-03-08T00:14:12.191Z,8.50
2019-03-08T00:16:41.434Z,8.50
2019-03-08T00:19:10.401Z,8.60
2019-03-08T00:21:39.274Z,8.60
2019-03-08T00:24:08.818Z,8.70
2019-03-08T00:26:38.012Z,8.70
2019-03-08T00:29:07.523Z,8.70
2019-03-08T00:31:39.155Z,8.80
2019-03-08T00:34:08.180Z,8.80
2019-03-08T00:36:37.147Z,8.70
2019-03-08T00:39:07.098Z,8.70
2019-03-08T00:41:35.960Z,8.70
2019-03-08T00:44:04.908Z,8.80
2019-03-08T00:46:34.061Z,8.80
2019-03-08T00:49:03.119Z,8.70
2019-03-08T00:51:32.254Z,8.70
2019-03-08T00:54:01.444Z,8.70
2019-03-08T00:56:30.573Z,8.70
2019-03-08T00:58:59.785Z,8.70
2019-03-08T01:01:28.687Z,8.70
2019-03-08T01:06:26.266Z,8.60
2019-03-08T01:08:55.046Z,8.50
2019-03-08T01:11:23.984Z,8.50
2019-03-08T01:13:53.386Z,8.50
2019-03-08T01:16:22.252Z,8.40
2019-03-08T01:18:51.120Z,8.40
2019-03-08T01:21:19.983Z,8.30
2019-03-08T01:23:48.845Z,8.30
2019-03-08T01:26:17.661Z,8.20
2019-03-08T01:28:46.803Z,8.20
2019-03-08T01:31:15.596Z,8.20
2019-03-08T01:33:45.020Z,8.20
2019-03-08T01:36:13.892Z,8.20
2019-03-08T01:38:42.762Z,8.20
2019-03-08T01:41:11.707Z,8.20
2019-03-08T01:43:40.580Z,8.10
2019-03-08T01:46:09.514Z,8.10
2019-03-08T01:48:38.374Z,8.10
2019-03-08T01:51:07.248Z,8.00
2019-03-08T01:53:36.145Z,8.00
2019-03-08T01:56:05.109Z,8.00
2019-03-08T01:58:34.041Z,7.90
2019-03-08T02:01:02.911Z,7.90
2019-03-08T02:03:31.760Z,7.90
2019-03-08T02:06:00.627Z,7.90
2019-03-08T02:08:29.792Z,7.80
2019-03-08T02:10:58.972Z,7.80
2019-03-08T02:13:27.898Z,7.70
2019-03-08T02:15:56.823Z,7.70
2019-03-08T02:18:25.872Z,7.70
2019-03-08T02:20:54.665Z,7.70
2019-03-08T02:23:23.481Z,7.60
2019-03-08T02:25:52.739Z,7.70
2019-03-08T02:28:21.618Z,7.60
2019-03-08T02:30:50.456Z,7.50
2019-03-08T02:33:19.246Z,7.50
2019-03-08T02:35:48.316Z,7.50
2019-03-08T02:38:17.198Z,7.50
2019-03-08T02:40:46.364Z,7.50
2019-03-08T02:43:17.169Z,7.50
2019-03-08T02:45:46.246Z,7.50
2019-03-08T02:48:15.043Z,7.50
2019-03-08T02:50:44.152Z,7.50
2019-03-08T02:53:13.158Z,7.50
2019-03-08T02:55:42.074Z,7.50
2019-03-08T02:58:11.024Z,7.50
2019-03-08T03:00:44.649Z,7.50
2019-03-08T03:03:13.953Z,7.50
2019-03-08T03:05:42.997Z,7.50
2019-03-08T03:08:11.914Z,7.60
2019-03-08T03:10:41.081Z,7.50
2019-03-08T03:13:09.953Z,7.60
2019-03-08T03:15:38.802Z,7.50
2019-03-08T03:18:07.656Z,7.40
2019-03-08T03:20:36.768Z,7.40
2019-03-08T03:23:05.939Z,7.20
2019-03-08T03:25:34.791Z,7.20
2019-03-08T03:28:03.924Z,7.20
2019-03-08T03:30:32.699Z,7.10
2019-03-08T03:33:01.587Z,7.10
2019-03-08T03:35:30.525Z,7.00
2019-03-08T03:37:59.413Z,6.90
2019-03-08T03:40:28.525Z,6.80
2019-03-08T03:42:57.584Z,6.80
2019-03-08T03:45:26.428Z,6.80
2019-03-08T03:47:55.206Z,6.80
2019-03-08T03:50:24.160Z,6.80
2019-03-08T03:52:53.092Z,6.80
2019-03-08T03:55:22.028Z,6.80
2019-03-08T03:57:50.803Z,6.80
2019-03-08T04:00:20.063Z,6.70
2019-03-08T04:02:49.052Z,6.70
2019-03-08T04:05:18.722Z,6.60
2019-03-08T04:07:47.628Z,6.60
2019-03-08T04:10:16.557Z,6.60
2019-03-08T04:12:45.480Z,6.50
2019-03-08T04:15:15.621Z,6.60
2019-03-08T04:17:45.240Z,6.60
2019-03-08T04:20:14.947Z,6.60
2019-03-08T04:22:43.815Z,6.60
2019-03-08T04:25:12.864Z,6.60
2019-03-08T04:27:41.922Z,6.60
2019-03-08T04:30:12.876Z,6.60
2019-03-08T04:32:41.752Z,6.60
2019-03-08T04:35:10.676Z,6.60
2019-03-08T04:37:39.448Z,6.60
2019-03-08T04:40:09.342Z,6.70
2019-03-08T04:42:38.336Z,6.70
2019-03-08T04:45:07.790Z,6.70
2019-03-08T04:47:36.565Z,6.70
2019-03-08T04:50:05.860Z,6.80
2019-03-08T04:52:34.642Z,6.90
2019-03-08T04:55:03.580Z,6.90
2019-03-08T04:57:32.764Z,6.90
2019-03-08T05:00:01.553Z,6.90
2019-03-08T05:02:30.328Z,6.90
2019-03-08T05:04:59.187Z,6.90
2019-03-08T05:07:27.974Z,6.90
2019-03-08T05:09:57.043Z,6.90
2019-03-08T05:12:25.804Z,6.90
2019-03-08T05:14:54.857Z,6.80
2019-03-08T05:17:23.654Z,6.80
2019-03-08T05:19:52.512Z,6.80
2019-03-08T05:22:23.177Z,6.80
2019-03-08T05:24:51.880Z,6.80
2019-03-08T05:27:20.660Z,6.80
2019-03-08T05:29:49.824Z,6.90
2019-03-08T05:32:18.617Z,6.90
2019-03-08T05:34:47.691Z,6.90
2019-03-08T05:37:16.688Z,6.90
2019-03-08T05:39:45.555Z,6.90
2019-03-08T05:42:14.336Z,6.90
2019-03-08T05:44:43.405Z,6.80
2019-03-08T05:47:12.563Z,6.70
2019-03-08T05:49:41.445Z,6.70
2019-03-08T05:52:10.564Z,6.70
2019-03-08T05:54:39.343Z,6.70
2019-03-08T05:57:08.738Z,6.60
2019-03-08T05:59:37.784Z,6.70
2019-03-08T06:02:06.573Z,6.70
2019-03-08T06:04:35.373Z,6.70
2019-03-08T06:07:04.233Z,6.70
2019-03-08T06:09:33.080Z,6.70
2019-03-08T06:12:01.867Z,6.60
2019-03-08T06:14:30.986Z,6.60
2019-03-08T06:16:59.776Z,6.60
2019-03-08T06:19:28.846Z,6.60
2019-03-08T06:21:57.720Z,6.50
2019-03-08T06:24:26.873Z,6.50
2019-03-08T06:26:55.951Z,6.50
2019-03-08T06:29:25.067Z,6.40
2019-03-08T06:31:54.225Z,6.30
2019-03-08T06:34:23.429Z,6.20
2019-03-08T06:36:52.471Z,6.10
2019-03-08T06:39:21.313Z,6.00
2019-03-08T06:41:50.396Z,6.00
2019-03-08T06:44:19.461Z,5.90
2019-03-08T06:46:48.606Z,5.80
2019-03-08T06:49:17.393Z,5.70
2019-03-08T06:51:46.578Z,5.70
2019-03-08T06:54:15.769Z,5.80
2019-03-08T06:56:44.570Z,5.80
2019-03-08T06:59:18.515Z,5.80
2019-03-08T07:01:47.481Z,5.90
2019-03-08T07:04:16.286Z,6.00
2019-03-08T07:06:45.091Z,6.10
2019-03-08T07:09:13.848Z,6.20
2019-03-08T07:11:42.901Z,6.20
2019-03-08T07:14:11.803Z,6.30
2019-03-08T07:16:40.967Z,6.30
2019-03-08T07:19:09.781Z,6.40
2019-03-08T07:21:57.147Z,6.50
2019-03-08T07:24:48.322Z,6.50
2019-03-08T07:27:54.101Z,6.40
2019-03-08T07:30:42.792Z,6.60
2019-03-08T07:33:30.051Z,6.90
2019-03-08T07:36:05.345Z,7.40
2019-03-08T07:38:42.101Z,8.00
2019-03-08T07:41:20.654Z,8.40
2019-03-08T07:44:05.505Z,8.60
2019-03-08T07:46:52.620Z,9.10
2019-03-08T07:49:30.108Z,9.50
2019-03-08T07:52:20.887Z,9.80
2019-03-08T07:54:55.935Z,10.40
2019-03-08T07:58:05.221Z,10.90
2019-03-08T08:00:45.336Z,11.20
2019-03-08T08:03:20.499Z,11.70
2019-03-08T08:06:11.215Z,12.10
2019-03-08T08:09:01.878Z,12.10
2019-03-08T08:11:41.533Z,11.80
2019-03-08T08:14:28.156Z,10.50
2019-03-08T08:17:07.794Z,9.60
2019-03-08T08:20:01.545Z,9.50
2019-03-08T08:22:52.615Z,9.40
2019-03-08T08:25:36.846Z,9.30
2019-03-08T08:28:34.253Z,9.10
2019-03-08T08:31:23.441Z,8.80
2019-03-08T08:34:11.398Z,8.70
2019-03-08T08:37:05.671Z,8.60
2019-03-08T08:39:56.622Z,8.60
2019-03-08T08:42:47.350Z,8.50
2019-03-08T08:45:44.508Z,8.40
2019-03-08T08:48:20.252Z,8.50
2019-03-08T08:51:17.444Z,8.50
2019-03-08T08:53:54.287Z,8.60
2019-03-08T08:56:48.693Z,8.60
2019-03-08T08:59:36.246Z,8.60
2019-03-08T09:02:23.476Z,8.60
2019-03-08T09:05:06.062Z,8.60
2019-03-08T09:07:49.391Z,8.60
2019-03-08T09:10:38.966Z,8.70
2019-03-08T09:13:25.385Z,8.70
2019-03-08T09:16:00.287Z,8.70
2019-03-08T09:18:57.264Z,8.70
2019-03-08T09:21:40.384Z,8.80
2019-03-08T09:24:14.516Z,8.90
2019-03-08T09:27:11.461Z,9.10
2019-03-08T09:30:06.527Z,9.30
2019-03-08T09:32:41.975Z,9.70
2019-03-08T09:35:33.178Z,10.20
2019-03-08T09:38:21.460Z,10.50
2019-03-08T09:41:08.039Z,10.60
2019-03-08T09:43:43.068Z,10.40
2019-03-08T09:46:30.965Z,10.30
2019-03-08T09:49:13.667Z,10.30
2019-03-08T09:51:55.625Z,10.30
2019-03-08T09:54:36.934Z,10.60
2019-03-08T09:57:11.938Z,10.50
2019-03-08T09:59:55.076Z,10.60
2019-03-08T10:02:41.637Z,10.40
2019-03-08T10:05:36.921Z,10.40
2019-03-08T10:08:34.949Z,10.90
2019-03-08T10:11:20.761Z,10.90
2019-03-08T10:16:42.684Z,11.20
2019-03-08T10:19:18.448Z,11.50
2019-03-08T10:22:06.663Z,11.50
2019-03-08T10:24:49.717Z,11.50
2019-03-08T10:27:23.653Z,11.80
2019-03-08T10:30:20.631Z,12.00
2019-03-08T10:32:55.272Z,11.80
2019-03-08T10:35:37.710Z,11.30
2019-03-08T10:38:22.403Z,11.00
2019-03-08T10:40:57.200Z,10.80
2019-03-08T10:43:44.240Z,10.70
2019-03-08T10:46:30.864Z,11.00
2019-03-08T10:49:20.877Z,11.50
2019-03-08T10:52:17.344Z,11.10
2019-03-08T10:55:01.709Z,10.80
2019-03-08T10:57:48.780Z,10.70
2019-03-08T11:00:36.898Z,11.20
2019-03-08T11:03:23.944Z,11.60
2019-03-08T11:06:04.533Z,12.10
2019-03-08T11:09:01.443Z,12.20
2019-03-08T11:11:44.674Z,12.50
2019-03-08T11:14:29.142Z,12.60
2019-03-08T11:17:10.041Z,12.00
2019-03-08T11:20:01.949Z,11.90
2019-03-08T11:22:37.813Z,11.80
2019-03-08T11:25:41.284Z,11.30
2019-03-08T11:28:34.690Z,11.10
2019-03-08T11:31:21.592Z,11.00
2019-03-08T11:34:00.725Z,10.90
2019-03-08T11:36:48.629Z,10.90
2019-03-08T11:39:51.984Z,11.00
2019-03-08T11:42:39.940Z,11.00
2019-03-08T11:45:34.973Z,10.80
2019-03-08T11:48:26.549Z,10.80
2019-03-08T11:51:11.296Z,10.80
2019-03-08T11:53:59.446Z,10.70
2019-03-08T11:56:44.900Z,10.50
2019-03-08T11:59:32.772Z,10.40
2019-03-08T12:02:20.051Z,10.20
2019-03-08T12:04:56.125Z,10.20
2019-03-08T12:07:40.108Z,10.20
2019-03-08T12:10:17.149Z,10.20
2019-03-08T12:12:56.900Z,10.10
2019-03-08T12:15:52.912Z,10.60
2019-03-08T12:18:36.657Z,11.20
2019-03-08T12:21:22.173Z,11.40
2019-03-08T12:24:02.606Z,11.30
2019-03-08T12:26:50.558Z,11.00
2019-03-08T12:29:25.228Z,10.90
2019-03-08T12:32:12.135Z,11.30
2019-03-08T12:34:59.050Z,11.50
2019-03-08T12:38:06.351Z,11.40
2019-03-08T12:40:45.527Z,11.20
2019-03-08T12:43:36.349Z,11.00
2019-03-08T12:46:23.385Z,11.10
2019-03-08T12:49:11.471Z,11.10
2019-03-08T12:51:57.776Z,11.20
2019-03-08T12:54:45.686Z,11.80
2019-03-08T12:57:33.052Z,12.30
2019-03-08T13:00:21.860Z,12.80
2019-03-08T13:03:02.353Z,12.80
2019-03-08T13:05:49.600Z,12.70
2019-03-08T13:08:29.211Z,13.20
2019-03-08T13:10:57.997Z,13.30
2019-03-08T13:13:26.797Z,12.80
2019-03-08T13:15:55.561Z,12.70
2019-03-08T13:18:24.756Z,12.40
2019-03-08T13:20:53.541Z,12.20
2019-03-08T13:23:22.473Z,12.10
2019-03-08T13:25:51.285Z,11.90
2019-03-08T13:28:20.077Z,12.10
2019-03-08T13:30:48.928Z,12.30
2019-03-08T13:33:17.889Z,12.10
2019-03-08T13:35:46.830Z,12.20
2019-03-08T13:38:15.643Z,12.30
2019-03-08T13:40:44.429Z,12.60
2019-03-08T13:43:13.236Z,12.60
2019-03-08T13:45:42.165Z,12.40
2019-03-08T13:48:11.313Z,12.50
2019-03-08T13:50:40.157Z,12.70
2019-03-08T13:53:09.306Z,12.80
2019-03-08T13:55:38.359Z,12.80
2019-03-08T13:58:07.166Z,12.80
2019-03-08T14:00:36.176Z,12.70
2019-03-08T14:03:05.800Z,12.70
2019-03-08T14:05:34.606Z,12.80
2019-03-08T14:08:03.686Z,12.90
2019-03-08T14:10:32.476Z,13.00
2019-03-08T14:13:01.268Z,13.30
2019-03-08T14:15:30.062Z,13.40
2019-03-08T14:17:58.865Z,13.30
2019-03-08T14:20:27.704Z,12.90
2019-03-08T14:22:57.286Z,12.50
2019-03-08T14:25:26.135Z,12.30
2019-03-08T14:27:54.946Z,12.30
2019-03-08T14:30:26.825Z,12.30
2019-03-08T14:32:58.032Z,12.30
2019-03-08T14:35:29.246Z,12.20
2019-03-08T14:37:57.150Z,12.00
2019-03-08T14:40:43.275Z,11.70
2019-03-08T14:43:21.432Z,11.60
2019-03-08T14:45:58.849Z,11.60
2019-03-08T14:48:27.629Z,11.60
2019-03-08T14:50:56.414Z,11.50
2019-03-08T14:53:28.327Z,11.70
2019-03-08T14:55:59.179Z,12.00
2019-03-08T14:58:26.805Z,12.20
2019-03-08T15:00:55.609Z,12.30
2019-03-08T15:03:24.839Z,12.50
2019-03-08T15:05:54.902Z,12.50
2019-03-08T15:08:24.752Z,12.30
2019-03-08T15:10:53.617Z,12.30
2019-03-08T15:13:24.165Z,12.30
2019-03-08T15:15:53.986Z,12.40
2019-03-08T15:18:25.963Z,12.40
2019-03-08T15:20:54.816Z,12.30
2019-03-08T15:23:24.014Z,12.30
2019-03-08T15:25:53.201Z,12.30
2019-03-08T15:28:22.069Z,12.10
2019-03-08T15:30:50.940Z,12.10
2019-03-08T15:33:19.775Z,12.20
2019-03-08T15:35:48.640Z,12.20
2019-03-08T15:38:17.500Z,12.20
2019-03-08T15:40:48.719Z,12.20
2019-03-08T15:43:17.299Z,12.20
2019-03-08T15:45:46.800Z,12.30
2019-03-08T15:48:16.048Z,12.20
2019-03-08T15:50:46.769Z,12.20
2019-03-08T15:53:15.803Z,12.20
2019-03-08T15:55:52.615Z,12.10
2019-03-08T15:58:15.469Z,11.90
2019-03-08T16:00:44.729Z,11.90
2019-03-08T16:03:13.596Z,11.80
2019-03-08T16:05:42.805Z,11.80
2019-03-08T16:08:12.061Z,11.80
2019-03-08T16:10:41.121Z,11.80
2019-03-08T16:13:09.959Z,11.70
2019-03-08T16:15:38.761Z,11.60
2019-03-08T16:18:07.623Z,11.50
2019-03-08T16:20:37.248Z,11.50
2019-03-08T16:23:08.166Z,11.40
2019-03-08T16:25:40.568Z,11.20
2019-03-08T16:28:08.001Z,11.20
2019-03-08T16:30:38.776Z,11.00
2019-03-08T16:33:14.697Z,11.00
2019-03-08T16:35:59.174Z,10.90
2019-03-08T16:38:46.982Z,10.80
2019-03-08T16:41:34.556Z,10.80
2019-03-08T16:44:25.060Z,10.70
2019-03-08T16:47:19.951Z,10.70
2019-03-08T16:50:05.143Z,10.60
2019-03-08T16:52:40.386Z,10.50
2019-03-08T16:55:22.069Z,10.40
2019-03-08T16:58:08.779Z,10.30
2019-03-08T17:00:58.342Z,10.20
2019-03-08T17:03:55.154Z,10.10
2019-03-08T17:06:34.316Z,10.00
2019-03-08T17:09:12.729Z,9.90
2019-03-08T17:11:47.986Z,9.90
2019-03-08T17:14:39.120Z,9.80
2019-03-08T17:17:32.889Z,9.70
2019-03-08T17:20:21.877Z,9.60
2019-03-08T17:23:04.412Z,9.50
2019-03-08T17:25:49.910Z,9.40
2019-03-08T17:28:40.930Z,9.40
2019-03-08T17:31:17.180Z,9.30
2019-03-08T17:33:53.840Z,9.30
2019-03-08T17:36:32.568Z,9.20
2019-03-08T17:39:12.124Z,9.10
2019-03-08T17:42:09.881Z,9.10
2019-03-08T17:44:50.058Z,9.00
2019-03-08T17:47:53.451Z,8.90
2019-03-08T17:50:40.252Z,8.90
2019-03-08T17:53:20.318Z,8.80
2019-03-08T17:56:06.962Z,8.80
2019-03-08T17:58:58.041Z,8.70
2019-03-08T18:01:52.411Z,8.70
2019-03-08T18:04:33.810Z,8.60
2019-03-08T18:07:30.793Z,8.60
2019-03-08T18:10:17.472Z,8.60
2019-03-08T18:12:57.601Z,8.50
2019-03-08T18:15:44.402Z,8.50
2019-03-08T18:18:24.580Z,8.40
2019-03-08T18:21:08.733Z,8.40
2019-03-08T18:24:05.896Z,8.30
2019-03-08T18:26:53.774Z,8.30
2019-03-08T18:30:00.337Z,8.30
2019-03-08T18:32:48.340Z,8.30
2019-03-08T18:35:31.742Z,8.30
2019-03-08T18:38:23.838Z,8.20
2019-03-08T18:41:17.796Z,8.20
2019-03-08T18:43:57.183Z,8.20
2019-03-08T18:46:48.542Z,8.20
2019-03-08T18:49:48.657Z,8.20
2019-03-08T18:52:42.438Z,8.20
2019-03-08T18:55:29.297Z,8.20
2019-03-08T18:58:27.418Z,8.20
2019-03-08T19:01:19.663Z,8.20
2019-03-08T19:04:10.052Z,8.20
2019-03-08T19:06:49.020Z,8.20
2019-03-08T19:09:23.293Z,8.20
2019-03-08T19:12:17.340Z,8.20
2019-03-08T19:15:00.348Z,8.20
2019-03-08T19:17:48.447Z,8.10
2019-03-08T19:20:31.750Z,8.20
2019-03-08T19:23:09.045Z,8.10
2019-03-08T19:26:06.182Z,8.10
2019-03-08T19:29:03.626Z,8.10
2019-03-08T19:31:44.138Z,8.00
2019-03-08T19:34:19.574Z,8.00
2019-03-08T19:37:06.173Z,8.00
2019-03-08T19:40:06.480Z,8.00
2019-03-08T19:43:06.227Z,7.80
2019-03-08T19:46:00.350Z,7.80
2019-03-08T19:48:40.274Z,7.80
2019-03-08T19:51:31.007Z,7.70
2019-03-08T19:54:27.962Z,7.70
2019-03-08T19:57:15.856Z,7.70
2019-03-08T20:00:02.365Z,7.80
2019-03-08T20:02:46.096Z,7.80
2019-03-08T20:05:33.037Z,7.80
2019-03-08T20:08:16.464Z,7.90
2019-03-08T20:11:07.157Z,7.80
2019-03-08T20:13:48.656Z,7.70
2019-03-08T20:16:26.051Z,7.70
2019-03-08T20:19:13.031Z,7.70
2019-03-08T20:21:59.250Z,7.70
2019-03-08T20:24:49.997Z,7.70
2019-03-08T20:27:43.798Z,7.70
2019-03-08T20:30:25.546Z,7.70
2019-03-08T20:33:13.496Z,7.70
2019-03-08T20:36:01.497Z,7.70
2019-03-08T20:38:46.038Z,7.70
2019-03-08T20:41:33.427Z,7.70
2019-03-08T20:44:13.142Z,7.70
2019-03-08T20:46:49.134Z,7.60
2019-03-08T20:49:18.065Z,7.60
2019-03-08T20:51:46.924Z,7.60
2019-03-08T20:54:15.747Z,7.60
2019-03-08T20:56:44.554Z,7.60
2019-03-08T20:59:13.354Z,7.60
2019-03-08T21:01:42.784Z,7.60
2019-03-08T21:04:12.032Z,7.70
2019-03-08T21:06:40.984Z,7.70
2019-03-08T21:09:10.827Z,7.70
2019-03-08T21:11:39.973Z,7.70
2019-03-08T21:14:08.783Z,7.70
2019-03-08T21:16:37.954Z,7.70
2019-03-08T21:19:06.751Z,7.70
2019-03-08T21:21:35.630Z,7.70
2019-03-08T21:24:04.987Z,7.70
2019-03-08T21:26:33.839Z,7.70
2019-03-08T21:29:04.053Z,7.70
2019-03-08T21:31:32.941Z,7.70
2019-03-08T21:34:01.782Z,7.70
2019-03-08T21:36:30.692Z,7.80
2019-03-08T21:38:59.900Z,7.70
2019-03-08T21:41:28.727Z,7.80
2019-03-08T21:43:57.630Z,7.70
2019-03-08T21:46:26.634Z,7.70
2019-03-08T21:48:55.510Z,7.80
2019-03-08T21:51:24.520Z,7.80
2019-03-08T21:53:54.215Z,7.80
2019-03-08T21:56:23.723Z,7.80
2019-03-08T21:58:52.585Z,7.80
2019-03-08T22:01:21.612Z,7.80
2019-03-08T22:04:01.136Z,7.70
2019-03-08T22:06:30.894Z,7.80
2019-03-08T22:09:05.969Z,7.70
2019-03-08T22:11:37.277Z,7.60
2019-03-08T22:14:08.261Z,7.60
2019-03-08T22:16:36.712Z,7.70
2019-03-08T22:19:05.587Z,7.60
2019-03-08T22:21:34.677Z,7.60
2019-03-08T22:24:12.893Z,7.60
2019-03-08T22:26:34.251Z,7.60
2019-03-08T22:29:03.479Z,7.70
2019-03-08T22:31:32.281Z,7.70
2019-03-08T22:34:01.983Z,7.70
2019-03-08T22:36:30.990Z,7.80
2019-03-08T22:39:00.637Z,7.70
2019-03-08T22:41:29.521Z,7.70
2019-03-08T22:43:58.347Z,7.60
2019-03-08T22:46:27.276Z,7.60
2019-03-08T22:48:56.326Z,7.50
2019-03-08T22:51:25.153Z,7.40
2019-03-08T22:53:53.953Z,7.50
2019-03-08T22:56:23.337Z,7.40
2019-03-08T22:58:52.129Z,7.40
2019-03-08T23:01:22.169Z,7.50
2019-03-08T23:03:51.531Z,7.40
2019-03-08T23:06:21.133Z,7.40
2019-03-08T23:08:50.257Z,7.40
2019-03-08T23:11:19.534Z,7.50
2019-03-08T23:13:48.326Z,7.40
2019-03-08T23:16:17.252Z,7.40
2019-03-08T23:18:46.452Z,7.40
2019-03-08T23:21:15.613Z,7.40
2019-03-08T23:23:44.406Z,7.40
2019-03-08T23:26:13.264Z,7.40
2019-03-08T23:28:45.783Z,7.40
2019-03-08T23:31:25.327Z,7.40
2019-03-08T23:33:54.114Z,7.40
2019-03-08T23:36:22.933Z,7.30
2019-03-08T23:38:51.724Z,7.30
2019-03-08T23:41:20.990Z,7.30
2019-03-08T23:43:49.772Z,7.40
2019-03-08T23:46:18.724Z,7.40
2019-03-08T23:48:47.826Z,7.40
2019-03-08T23:51:17.161Z,7.30
2019-03-08T23:53:45.945Z,7.30
2019-03-08T23:56:14.846Z,7.20
2019-03-08T23:58:43.641Z,7.20
